Idabel, OK

11:45 PM CDT on July 28, 2014 (GMT -0500)
Helms Sevier County (KDEQ) Elev 354 ft | 34.05 °N, 94.40 °W | Change Station

Current weather conditions updated 52 minutes ago

Clear
Clear
71 °F
Feels Like 71 °F
N
0
Wind Variable Wind from North

Tomorrow is forecast to be nearly the same temperature as today.

Today
High -- | Low -- °F
--% Chance of Precip.
Yesterday
High -- | Low -- °F
Precip. -- in
6:27 AM 8:22 PM
Waxing Crescent, 5% visible
Pressure 30.07 in
Visibility 10.0 miles
Clouds Clear
Dew Point 67 °F
Humidity 87%
Rainfall 0.00 in
Snow Depth Not available.
UV 0 out of 12
Pollen 5.30 out of 12
Air Quality Not available.
Flu Activity Not available.
METAR KDEQ 290353Z AUTO 00000KT 10SM CLR 22/19 A3008 RMK AO2 SLP181 T02170194

More Conditions Fewer Conditions

Pressure 30.07 in
Visibility 10.0 miles
Clouds Clear
Dew Point 67 °F
Humidity 87%
Rainfall 0.00 in
Snow Depth Not available.
UV 0 out of 12
Pollen 5.30 out of 12
Air Quality Not available.
Flu Activity Not available.
METAR KDEQ 290353Z AUTO 00000KT 10SM CLR 22/19 A3008 RMK AO2 SLP181 T02170194

More Conditions Fewer Conditions

10-Day Weather Forecast

Almanac

Astronomy

Jul. 28, 2014 Rise Set
Actual Time 6:27 AM CDT 8:22 PM CDT
Civil Twilight 6:00 AM CDT 8:50 PM CDT
Nautical Twilight 5:26 AM CDT 9:23 PM CDT
Astronomical Twilight 4:51 AM CDT 9:59 PM CDT
Moon 8:02 AM CDT (7/28) 9:13 PM CDT (7/28)
Length of Visible Light 14h 50m
Length of Day
13h 54m
Tomorrow will be 1m 28s shorter.
Waxing Crescent, 5% of the Moon is Illuminated
Jul 29
Waxing Crescent
Aug 3
First Quarter
Aug 10
Full
Aug 17
Last Quarter
Aug 25
New

Yesterday's Extremes

State Highs State Lows

Community

WunderPhotos

Upload Photos

1,738,634 photos uploaded!

Nearby

Snow Depth

Station Depth Elevation
No new snow has been reported.

Earthquake Activity

City Distance Mag. Time & Date
No recent earthquake activity has been reported nearby.
Minimum magnitude displayed is 2.5.

Coastal Water Temperatures

Place Temperature
No Stations Reporting

Nearby Weather Stations

Station Location Temp. Heat Index Dew Point Humidity Wind Precip. Elev Updated Type
Fuller Farms, Haworth, OK 68.6 °F - 66 °F 90% WNW  at  0.0 mph 0.00 in / hr 433 ft 11:44 PM CDT Rapid Fire
APRSWXNET Broken Bow OK , Broken Bow, OK 72 °F 74 °F 62 °F 71% SW  at  0 mph 0.00 in / hr 109 ft 11:11 PM CDT MADIS
RAWS BROKEN BOW OK, Broken Bow, OK 70 °F - 68 °F 94% West  at  1 mph 0.00 in / hr 500 ft 11:02 PM CDT MADIS

Show More Stations Show Fewer Stations